createdAt,value
2023-03-16T00:00:00.000Z,3.14
2023-03-16T00:15:00.000Z,3.17
2023-03-16T00:30:00.000Z,2.97
2023-03-16T00:45:00.000Z,2.9
2023-03-16T01:00:00.000Z,2.84
2023-03-16T01:15:00.000Z,2.59
2023-03-16T01:30:00.000Z,2.62
2023-03-16T01:45:00.000Z,2.67
2023-03-16T02:00:00.000Z,2.65
2023-03-16T02:15:00.000Z,2.43
2023-03-16T02:30:00.000Z,2.23
2023-03-16T02:45:00.000Z,2.1
2023-03-16T03:00:00.000Z,2.04
2023-03-16T03:15:00.000Z,1.9
2023-03-16T03:30:00.000Z,1.84
2023-03-16T03:45:00.000Z,1.88
2023-03-16T04:00:00.000Z,1.97
2023-03-16T04:15:00.000Z,2.03
2023-03-16T04:30:00.000Z,2.13
2023-03-16T04:45:00.000Z,2.23
2023-03-16T04:45:00.000Z,2.23
2023-03-16T05:15:00.000Z,1.99
2023-03-16T05:15:00.000Z,1.99
2023-03-16T05:45:00.000Z,2.63
2023-03-16T05:45:00.000Z,2.63
2023-03-16T05:45:00.000Z,2.63
2023-03-16T06:30:00.000Z,3.45
2023-03-16T06:30:00.000Z,3.45
2023-03-16T07:00:00.000Z,7.14
2023-03-16T07:15:00.000Z,8.86
2023-03-16T07:30:00.000Z,9.82
2023-03-16T07:45:00.000Z,10.3
2023-03-16T08:00:00.000Z,11.2
2023-03-16T08:15:00.000Z,11.73
2023-03-16T08:30:00.000Z,11.72
2023-03-16T08:45:00.000Z,11.86
2023-03-16T09:00:00.000Z,11.95
2023-03-16T09:15:00.000Z,12.65
2023-03-16T09:30:00.000Z,12.87
2023-03-16T09:45:00.000Z,12.8
2023-03-16T10:00:00.000Z,13.76
2023-03-16T10:15:00.000Z,13.22
2023-03-16T10:30:00.000Z,13.49
2023-03-16T10:45:00.000Z,13.05
2023-03-16T11:00:00.000Z,12.72
2023-03-16T11:15:00.000Z,12.71
2023-03-16T11:30:00.000Z,12.5
2023-03-16T11:45:00.000Z,12.42
2023-03-16T12:00:00.000Z,12.53
2023-03-16T12:15:00.000Z,12.65
2023-03-16T12:30:00.000Z,12.13
2023-03-16T12:45:00.000Z,11.77
2023-03-16T13:00:00.000Z,11.48
2023-03-16T13:15:00.000Z,11.62
2023-03-16T13:30:00.000Z,11.72
2023-03-16T13:45:00.000Z,11.57
2023-03-16T14:00:00.000Z,11.53
2023-03-16T14:15:00.000Z,11.49
2023-03-16T14:30:00.000Z,11.4
2023-03-16T14:45:00.000Z,11.23
2023-03-16T15:00:00.000Z,11.25
2023-03-16T15:15:00.000Z,11.23
2023-03-16T15:30:00.000Z,11.14
2023-03-16T15:45:00.000Z,11
2023-03-16T16:00:00.000Z,10.79
2023-03-16T16:15:00.000Z,10.53
2023-03-16T16:30:00.000Z,10.17
2023-03-16T16:45:00.000Z,9.71
2023-03-16T17:00:00.000Z,9.23
2023-03-16T17:15:00.000Z,8.77
2023-03-16T17:30:00.000Z,8.35
2023-03-16T17:45:00.000Z,8
2023-03-16T18:00:00.000Z,7.8
2023-03-16T18:15:00.000Z,7.55
2023-03-16T18:30:00.000Z,7.33
2023-03-16T18:45:00.000Z,7.01
2023-03-16T19:00:00.000Z,6.76
2023-03-16T19:15:00.000Z,6.55
2023-03-16T19:30:00.000Z,6.39
2023-03-16T19:45:00.000Z,6.11
2023-03-16T20:00:00.000Z,5.67
2023-03-16T20:15:00.000Z,5.58
2023-03-16T20:30:00.000Z,5.53
2023-03-16T20:45:00.000Z,5.37
2023-03-16T21:00:00.000Z,5.11
2023-03-16T21:15:00.000Z,4.95
2023-03-16T21:30:00.000Z,4.99
2023-03-16T21:45:00.000Z,4.87
2023-03-16T22:00:00.000Z,4.69
2023-03-16T22:15:00.000Z,4.67
2023-03-16T22:30:00.000Z,5.16
2023-03-16T22:45:00.000Z,4.67
2023-03-16T23:00:00.000Z,4.73
2023-03-16T23:15:00.000Z,5.03
2023-03-16T23:30:00.000Z,4.83
2023-03-16T23:45:00.000Z,4.57
